createdAt,value
2022-12-08T00:01:31.499Z,5.77
2022-12-08T00:04:00.186Z,6.07
2022-12-08T00:06:58.981Z,6.10
2022-12-08T00:09:26.424Z,6.20
2022-12-08T00:12:00.255Z,7.47
2022-12-08T00:14:30.784Z,5.63
2022-12-08T00:16:59.423Z,6.67
2022-12-08T00:19:27.918Z,6.90
2022-12-08T00:21:56.496Z,6.67
2022-12-08T00:24:29.397Z,6.23
2022-12-08T00:26:56.768Z,6.70
2022-12-08T00:29:24.070Z,7.67
2022-12-08T00:31:52.583Z,6.50
2022-12-08T00:34:20.493Z,7.47
2022-12-08T00:36:48.023Z,6.00
2022-12-08T00:39:17.577Z,6.13
2022-12-08T00:42:04.040Z,6.57
2022-12-08T00:44:31.621Z,7.60
2022-12-08T00:46:59.829Z,7.57
2022-12-08T00:49:27.527Z,7.87
2022-12-08T00:51:55.006Z,9.00
2022-12-08T00:54:26.207Z,8.27
2022-12-08T00:56:53.637Z,8.40
2022-12-08T00:59:21.140Z,9.60
2022-12-08T01:01:48.680Z,8.60
2022-12-08T01:04:18.658Z,9.13
2022-12-08T01:06:46.945Z,8.97
2022-12-08T01:09:15.728Z,9.57
2022-12-08T01:11:44.949Z,8.97
2022-12-08T01:14:13.392Z,8.37
2022-12-08T01:16:41.960Z,10.03
2022-12-08T01:19:14.487Z,11.07
2022-12-08T01:21:43.136Z,9.30
2022-12-08T01:24:18.032Z,9.63
2022-12-08T01:26:46.255Z,9.00
2022-12-08T01:29:14.147Z,8.93
2022-12-08T01:31:41.685Z,8.50
2022-12-08T01:34:10.948Z,9.13
2022-12-08T01:36:39.485Z,7.80
2022-12-08T01:39:18.323Z,8.13
2022-12-08T01:41:47.890Z,8.37
2022-12-08T01:44:15.203Z,8.53
2022-12-08T01:46:44.861Z,7.90
2022-12-08T01:49:14.058Z,8.03
2022-12-08T01:51:50.891Z,7.87
2022-12-08T01:54:19.597Z,8.20
2022-12-08T01:56:50.053Z,7.97
2022-12-08T01:59:18.303Z,7.60
2022-12-08T02:01:52.145Z,7.37
2022-12-08T02:04:19.871Z,7.57
2022-12-08T02:06:49.450Z,7.33
2022-12-08T02:09:18.013Z,7.33
2022-12-08T02:11:45.934Z,7.17
2022-12-08T02:14:14.667Z,7.53
2022-12-08T02:17:00.649Z,9.73
2022-12-08T02:19:55.974Z,7.47
2022-12-08T02:22:33.511Z,7.47
2022-12-08T02:25:15.152Z,6.83
2022-12-08T02:28:00.669Z,6.90
2022-12-08T02:30:50.538Z,6.67
2022-12-08T02:33:54.009Z,6.83
2022-12-08T02:36:33.477Z,7.23
2022-12-08T02:39:05.649Z,6.83
2022-12-08T02:41:40.170Z,7.17
2022-12-08T02:44:37.556Z,6.97
2022-12-08T02:47:07.915Z,6.90
2022-12-08T02:49:36.083Z,6.83
2022-12-08T02:52:12.895Z,6.50
2022-12-08T02:55:04.979Z,6.27
2022-12-08T02:57:42.493Z,6.37
2022-12-08T03:00:17.615Z,6.80
2022-12-08T03:02:57.168Z,5.97
2022-12-08T03:05:33.620Z,6.97
2022-12-08T03:08:19.152Z,7.00
2022-12-08T03:11:02.622Z,6.37
2022-12-08T03:13:41.014Z,7.17
2022-12-08T03:16:11.475Z,6.60
2022-12-08T03:18:45.988Z,6.73
2022-12-08T03:21:16.378Z,6.83
2022-12-08T03:23:46.632Z,6.77
2022-12-08T03:26:23.059Z,6.87
2022-12-08T03:28:50.659Z,7.07
2022-12-08T03:31:20.108Z,6.77
2022-12-08T03:33:51.697Z,7.30
2022-12-08T03:36:19.778Z,7.10
2022-12-08T03:38:50.502Z,6.60
2022-12-08T03:41:20.588Z,6.70
2022-12-08T03:43:50.748Z,6.67
2022-12-08T03:48:47.287Z,6.67
2022-12-08T03:51:15.845Z,6.80
2022-12-08T03:53:44.011Z,7.53
2022-12-08T03:56:31.158Z,6.83
2022-12-08T03:58:59.703Z,7.47
2022-12-08T04:01:27.899Z,6.30
2022-12-08T04:03:55.651Z,6.27
2022-12-08T04:06:23.681Z,6.57
2022-12-08T04:08:51.785Z,6.90
2022-12-08T04:11:19.847Z,8.60
2022-12-08T04:13:48.401Z,6.60
2022-12-08T04:16:23.009Z,6.53
2022-12-08T04:18:51.002Z,7.07
2022-12-08T04:21:18.558Z,7.97
2022-12-08T04:23:46.861Z,6.53
2022-12-08T04:26:14.927Z,6.80
2022-12-08T04:28:42.629Z,6.43
2022-12-08T04:31:10.280Z,6.40
2022-12-08T04:33:38.200Z,5.80
2022-12-08T04:36:06.590Z,7.40
2022-12-08T04:38:34.802Z,8.80
2022-12-08T04:41:02.718Z,8.93
2022-12-08T04:43:30.589Z,7.87
2022-12-08T04:45:59.793Z,9.93
2022-12-08T04:48:27.491Z,9.13
2022-12-08T04:50:55.898Z,7.67
2022-12-08T04:53:23.523Z,7.63
2022-12-08T04:55:51.126Z,6.97
2022-12-08T04:58:19.719Z,7.00
2022-12-08T05:00:48.009Z,6.80
2022-12-08T05:03:16.596Z,6.73
2022-12-08T05:05:44.134Z,8.33
2022-12-08T05:08:11.882Z,6.90
2022-12-08T05:10:40.381Z,7.63
2022-12-08T05:13:08.476Z,8.23
2022-12-08T05:15:36.230Z,7.97
2022-12-08T05:18:06.053Z,7.40
2022-12-08T05:20:34.125Z,7.87
2022-12-08T05:23:01.767Z,8.60
2022-12-08T05:25:29.109Z,8.23
2022-12-08T05:28:17.481Z,7.87
2022-12-08T05:30:43.956Z,7.83
2022-12-08T05:33:11.445Z,7.80
2022-12-08T05:35:39.189Z,7.43
2022-12-08T05:38:07.314Z,7.03
2022-12-08T05:40:35.108Z,7.23
2022-12-08T05:43:02.411Z,7.73
2022-12-08T05:45:29.777Z,7.60
2022-12-08T05:47:57.088Z,7.13
2022-12-08T05:50:24.466Z,6.40
2022-12-08T05:52:55.686Z,7.47
2022-12-08T05:55:23.126Z,7.43
2022-12-08T05:57:50.592Z,6.97
2022-12-08T06:00:18.823Z,7.00
2022-12-08T06:02:46.380Z,6.80
2022-12-08T06:05:14.078Z,9.23
2022-12-08T06:07:41.866Z,7.67
2022-12-08T06:10:09.988Z,9.03
2022-12-08T06:12:37.757Z,8.00
2022-12-08T06:15:06.584Z,7.27
2022-12-08T06:17:34.819Z,7.60
2022-12-08T06:20:02.890Z,9.10
2022-12-08T06:22:30.983Z,7.50
2022-12-08T06:24:58.325Z,7.97
2022-12-08T06:27:25.926Z,8.03
2022-12-08T06:29:53.668Z,7.60
2022-12-08T06:32:27.112Z,8.63
2022-12-08T06:34:55.013Z,7.93
2022-12-08T06:37:22.622Z,7.57
2022-12-08T06:39:49.981Z,13.50
2022-12-08T06:42:37.706Z,9.10
2022-12-08T06:45:05.592Z,10.70
2022-12-08T06:47:33.020Z,9.00
2022-12-08T06:50:00.957Z,8.87
2022-12-08T06:52:28.469Z,8.63
2022-12-08T06:54:57.303Z,9.10
2022-12-08T06:57:25.023Z,9.03
2022-12-08T06:59:52.447Z,10.50
2022-12-08T07:02:19.895Z,9.23
2022-12-08T07:04:48.463Z,9.43
2022-12-08T07:07:16.000Z,9.70
2022-12-08T07:09:45.005Z,9.07
2022-12-08T07:12:12.439Z,9.50
2022-12-08T07:14:39.893Z,10.70
2022-12-08T07:17:07.207Z,11.33
2022-12-08T07:19:34.917Z,11.23
2022-12-08T07:22:02.428Z,11.10
2022-12-08T07:24:29.920Z,11.03
2022-12-08T07:26:57.360Z,12.23
2022-12-08T07:29:26.487Z,10.97
2022-12-08T07:31:54.080Z,11.30
2022-12-08T07:34:21.610Z,9.40
2022-12-08T07:36:50.292Z,11.07
2022-12-08T07:39:17.629Z,11.00
2022-12-08T07:41:45.439Z,10.43
2022-12-08T07:44:13.624Z,11.90
2022-12-08T07:46:41.182Z,17.73
2022-12-08T07:49:08.839Z,15.47
2022-12-08T07:51:36.669Z,12.50
2022-12-08T07:54:04.424Z,12.50
2022-12-08T07:56:32.185Z,12.37
2022-12-08T07:59:02.986Z,12.63
2022-12-08T08:01:33.688Z,12.20
2022-12-08T08:04:05.131Z,12.33
2022-12-08T08:06:35.051Z,12.43
2022-12-08T08:09:02.767Z,12.00
2022-12-08T08:11:31.190Z,12.27
2022-12-08T08:13:58.769Z,13.17
2022-12-08T08:16:33.516Z,12.37
2022-12-08T08:19:04.157Z,11.80
2022-12-08T08:21:46.961Z,11.60
2022-12-08T08:24:14.321Z,11.10
2022-12-08T08:26:41.669Z,11.80
2022-12-08T08:29:09.215Z,10.27
2022-12-08T08:31:36.939Z,10.37
2022-12-08T08:34:06.773Z,10.60
2022-12-08T08:36:34.264Z,10.67
2022-12-08T08:39:02.248Z,10.73
2022-12-08T08:41:29.728Z,9.87
2022-12-08T08:43:57.939Z,9.70
2022-12-08T08:46:25.678Z,11.17
2022-12-08T08:48:53.144Z,10.60
2022-12-08T08:51:21.494Z,11.60
2022-12-08T08:53:49.111Z,10.67
2022-12-08T08:56:21.741Z,10.20
2022-12-08T08:58:51.565Z,10.17
2022-12-08T09:01:21.612Z,10.27
2022-12-08T09:03:50.396Z,9.47
2022-12-08T09:06:18.448Z,9.93
2022-12-08T09:08:46.652Z,8.70
2022-12-08T09:11:14.625Z,8.77
2022-12-08T09:13:43.109Z,8.67
2022-12-08T09:16:12.665Z,7.97
2022-12-08T09:18:40.697Z,7.93
2022-12-08T09:21:13.210Z,7.70
2022-12-08T09:23:41.579Z,7.10
2022-12-08T09:26:09.938Z,20.60
2022-12-08T09:28:39.841Z,23.40
2022-12-08T09:31:07.344Z,22.80
2022-12-08T09:33:35.385Z,13.03
2022-12-08T09:36:04.479Z,10.93
2022-12-08T09:38:33.129Z,11.93
2022-12-08T09:41:02.891Z,13.57
2022-12-08T09:43:47.805Z,14.87
2022-12-08T09:46:17.527Z,10.33
2022-12-08T09:48:56.147Z,12.77
2022-12-08T09:51:25.637Z,13.30
2022-12-08T09:54:01.701Z,11.03
2022-12-08T09:56:34.194Z,11.10
2022-12-08T09:59:19.585Z,10.20
2022-12-08T10:01:49.532Z,11.03
2022-12-08T10:04:19.849Z,12.07
2022-12-08T10:07:20.470Z,10.97
2022-12-08T10:10:04.330Z,12.50
2022-12-08T10:12:50.655Z,11.30
2022-12-08T10:15:50.172Z,11.93
2022-12-08T10:18:26.006Z,11.23
2022-12-08T10:20:54.446Z,11.80
2022-12-08T10:23:32.003Z,12.83
2022-12-08T10:26:06.756Z,11.93
2022-12-08T10:28:39.967Z,11.80
2022-12-08T10:31:24.301Z,12.60
2022-12-08T10:33:59.311Z,12.03
2022-12-08T10:36:54.561Z,11.73
2022-12-08T10:39:44.087Z,10.97
2022-12-08T10:42:14.780Z,11.57
2022-12-08T10:45:00.617Z,11.40
2022-12-08T10:47:30.005Z,12.80
2022-12-08T10:50:23.623Z,12.47
2022-12-08T10:53:10.910Z,12.40
2022-12-08T10:55:43.413Z,11.40
2022-12-08T10:58:27.797Z,12.17
2022-12-08T11:01:05.283Z,12.40
2022-12-08T11:03:49.117Z,12.10
2022-12-08T11:06:29.511Z,13.23
2022-12-08T11:09:00.095Z,12.67
2022-12-08T11:11:49.551Z,13.30
2022-12-08T11:14:47.073Z,12.03
2022-12-08T11:17:28.919Z,14.10
2022-12-08T11:20:06.871Z,13.20
2022-12-08T11:22:53.792Z,14.13
2022-12-08T11:25:26.979Z,13.67
2022-12-08T11:27:58.524Z,13.70
2022-12-08T11:30:38.107Z,13.60
2022-12-08T11:33:19.748Z,16.73
2022-12-08T11:36:02.378Z,14.80
2022-12-08T11:38:31.287Z,13.67
2022-12-08T11:41:15.794Z,14.67
2022-12-08T11:44:09.570Z,13.20
2022-12-08T11:46:57.252Z,14.90
2022-12-08T11:49:34.421Z,13.73
2022-12-08T11:52:29.314Z,13.60
2022-12-08T11:55:04.824Z,13.10
2022-12-08T11:57:32.427Z,13.07
2022-12-08T12:00:01.559Z,13.37
2022-12-08T12:02:44.491Z,13.47
2022-12-08T12:06:08.629Z,14.50
2022-12-08T12:09:04.223Z,14.07
2022-12-08T12:11:59.250Z,13.83
2022-12-08T12:14:52.030Z,13.90
2022-12-08T12:17:38.903Z,13.93
2022-12-08T12:20:33.596Z,12.87
2022-12-08T12:23:16.852Z,12.90
2022-12-08T12:26:09.637Z,13.70
2022-12-08T12:29:02.488Z,13.40
2022-12-08T12:31:36.946Z,13.67
2022-12-08T12:34:14.975Z,13.93
2022-12-08T12:37:10.494Z,14.27
2022-12-08T12:39:53.961Z,14.37
2022-12-08T12:42:41.696Z,14.30
2022-12-08T12:45:16.417Z,15.23
2022-12-08T12:47:56.293Z,14.77
2022-12-08T12:50:46.303Z,15.47
2022-12-08T12:53:16.858Z,15.47
2022-12-08T12:56:02.607Z,17.77
2022-12-08T12:58:30.877Z,19.23
2022-12-08T13:01:13.766Z,20.73
2022-12-08T13:04:03.497Z,19.77
2022-12-08T13:06:41.816Z,19.87
2022-12-08T13:09:30.545Z,16.93
2022-12-08T13:12:23.108Z,16.53
2022-12-08T13:14:52.469Z,17.90
2022-12-08T13:17:28.917Z,19.70
2022-12-08T13:19:59.218Z,16.93
2022-12-08T13:22:54.428Z,18.43
2022-12-08T13:25:41.065Z,16.17
2022-12-08T13:28:20.944Z,15.03
2022-12-08T13:30:54.045Z,16.67
2022-12-08T13:33:33.912Z,16.63
2022-12-08T13:36:23.540Z,16.33
2022-12-08T13:38:56.003Z,15.50
2022-12-08T13:41:34.772Z,17.50
2022-12-08T13:45:18.430Z,15.37
2022-12-08T13:54:42.592Z,20.57
2022-12-08T13:59:09.228Z,17.30
2022-12-08T14:01:45.723Z,17.33
2022-12-08T14:05:08.863Z,18.30
2022-12-08T14:07:06.889Z,16.37
2022-12-08T14:09:36.800Z,17.10
2022-12-08T14:12:18.652Z,28.17
2022-12-08T14:15:05.181Z,18.17
2022-12-08T14:17:33.664Z,16.97
2022-12-08T14:20:25.881Z,22.40
2022-12-08T14:22:53.996Z,18.80
2022-12-08T14:25:22.782Z,17.77
2022-12-08T14:27:56.533Z,18.70
2022-12-08T14:30:32.894Z,18.17
2022-12-08T14:33:02.945Z,17.77
2022-12-08T14:35:35.609Z,17.60
2022-12-08T14:38:13.911Z,19.13
2022-12-08T14:40:47.573Z,18.50
2022-12-08T14:43:20.751Z,19.93
2022-12-08T14:45:50.962Z,18.30
2022-12-08T14:48:38.821Z,17.47
2022-12-08T14:51:15.016Z,23.03
2022-12-08T14:54:07.361Z,71.00
2022-12-08T14:56:54.549Z,209.77
2022-12-08T14:59:35.380Z,306.90
2022-12-08T15:02:22.059Z,107.10
2022-12-08T15:05:00.066Z,50.60
2022-12-08T15:07:31.010Z,32.70
2022-12-08T15:10:22.928Z,45.57
2022-12-08T15:13:02.148Z,57.60
2022-12-08T15:15:32.202Z,34.27
2022-12-08T15:18:10.251Z,27.93
2022-12-08T15:20:44.361Z,25.37
2022-12-08T15:23:20.199Z,22.80
2022-12-08T15:25:47.880Z,20.63
2022-12-08T15:28:19.025Z,22.63
2022-12-08T15:30:47.572Z,21.83
2022-12-08T15:33:15.512Z,22.50
2022-12-08T15:35:43.433Z,20.30
2022-12-08T15:38:21.167Z,22.03
2022-12-08T15:40:50.426Z,19.27
2022-12-08T15:43:18.106Z,19.17
2022-12-08T15:45:57.938Z,17.80
2022-12-08T15:48:29.015Z,18.07
2022-12-08T15:50:57.338Z,19.57
2022-12-08T15:53:25.146Z,21.37
2022-12-08T15:56:25.588Z,24.30
2022-12-08T15:58:57.331Z,27.53
2022-12-08T16:01:27.458Z,22.37
2022-12-08T16:04:37.220Z,32.27
2022-12-08T16:09:39.292Z,27.23
2022-12-08T16:13:48.343Z,38.37
2022-12-08T16:15:51.655Z,21.73
2022-12-08T16:18:28.400Z,40.07
2022-12-08T16:23:45.165Z,29.63
2022-12-08T16:27:21.978Z,23.10
2022-12-08T16:29:17.359Z,22.50
2022-12-08T16:31:44.873Z,23.47
2022-12-08T16:34:12.453Z,24.63
2022-12-08T16:36:40.384Z,23.57
2022-12-08T16:39:09.302Z,23.07
2022-12-08T16:41:56.277Z,37.37
2022-12-08T16:44:23.853Z,30.20
2022-12-08T16:46:51.352Z,23.67
2022-12-08T16:49:18.884Z,27.50
2022-12-08T16:51:46.597Z,28.67
2022-12-08T16:54:15.615Z,25.57
2022-12-08T16:56:43.244Z,30.37
2022-12-08T16:59:11.012Z,24.80
2022-12-08T17:01:38.429Z,30.67
2022-12-08T17:06:54.160Z,26.53
2022-12-08T17:09:22.576Z,26.87
2022-12-08T17:11:50.135Z,25.97
2022-12-08T17:14:19.003Z,25.10
2022-12-08T17:16:46.629Z,26.47
2022-12-08T17:19:16.162Z,27.10
2022-12-08T17:21:44.649Z,24.93
2022-12-08T17:24:14.718Z,35.83
2022-12-08T17:26:46.531Z,31.13
2022-12-08T17:29:14.185Z,34.33
2022-12-08T17:31:41.783Z,30.03
2022-12-08T17:34:11.220Z,31.60
2022-12-08T17:36:39.363Z,31.13
2022-12-08T17:39:12.030Z,29.20
2022-12-08T17:41:43.332Z,29.67
2022-12-08T17:44:13.545Z,33.87
2022-12-08T17:46:49.107Z,31.83
2022-12-08T17:49:24.107Z,32.63
2022-12-08T17:51:55.209Z,34.40
2022-12-08T17:54:23.674Z,33.53
2022-12-08T17:56:51.617Z,35.07
2022-12-08T17:59:19.151Z,31.43
2022-12-08T18:01:47.259Z,34.93
2022-12-08T18:04:14.877Z,32.63
2022-12-08T18:06:43.498Z,38.50
2022-12-08T18:09:10.880Z,33.00
2022-12-08T18:11:42.126Z,41.70
2022-12-08T18:14:10.762Z,30.17
2022-12-08T18:16:41.263Z,28.47
2022-12-08T18:19:09.264Z,31.93
2022-12-08T18:21:38.991Z,36.83
2022-12-08T18:24:08.042Z,39.47
2022-12-08T18:26:35.707Z,36.30
2022-12-08T18:29:04.176Z,44.37
2022-12-08T18:31:31.583Z,44.30
2022-12-08T18:33:59.130Z,37.33
2022-12-08T18:36:27.299Z,37.33
2022-12-08T18:38:55.049Z,31.30
2022-12-08T18:41:25.930Z,34.40
2022-12-08T18:43:55.478Z,34.47
2022-12-08T18:46:25.716Z,38.23
2022-12-08T18:48:53.386Z,34.17
2022-12-08T18:51:23.112Z,30.57
2022-12-08T18:53:51.568Z,27.23
2022-12-08T18:56:31.537Z,27.63
2022-12-08T18:59:03.547Z,29.67
2022-12-08T19:01:37.230Z,37.37
2022-12-08T19:06:56.335Z,69.00
2022-12-08T19:09:26.336Z,28.60
2022-12-08T19:11:53.998Z,28.03
2022-12-08T19:14:27.824Z,25.47
2022-12-08T19:16:57.888Z,25.73
2022-12-08T19:19:27.226Z,26.47
2022-12-08T19:21:55.570Z,33.30
2022-12-08T19:24:23.818Z,27.87
2022-12-08T19:26:52.188Z,24.57
2022-12-08T19:29:19.679Z,29.60
2022-12-08T19:31:48.184Z,31.73
2022-12-08T19:34:16.053Z,28.77
2022-12-08T19:36:45.496Z,27.17
2022-12-08T19:39:41.287Z,25.50
2022-12-08T19:42:36.950Z,34.50
2022-12-08T19:45:14.439Z,38.37
2022-12-08T19:47:42.553Z,26.97
2022-12-08T19:50:30.925Z,37.77
2022-12-08T19:52:59.701Z,29.17
2022-12-08T19:55:27.572Z,26.63
2022-12-08T19:57:56.883Z,23.83
2022-12-08T20:00:24.939Z,26.43
2022-12-08T20:02:52.634Z,25.40
2022-12-08T20:05:20.200Z,29.97
2022-12-08T20:07:48.173Z,23.97
2022-12-08T20:10:22.226Z,24.40
2022-12-08T20:12:49.902Z,22.93
2022-12-08T20:15:17.285Z,24.53
2022-12-08T20:17:44.868Z,27.70
2022-12-08T20:20:14.557Z,35.43
2022-12-08T20:22:43.176Z,34.97
2022-12-08T20:25:13.009Z,24.30
2022-12-08T20:27:41.658Z,34.50
2022-12-08T20:30:16.518Z,27.77
2022-12-08T20:32:45.832Z,25.97
2022-12-08T20:35:14.835Z,39.43
2022-12-08T20:37:42.930Z,29.20
2022-12-08T20:40:10.895Z,29.50
2022-12-08T20:42:38.563Z,27.23
2022-12-08T20:45:09.479Z,32.67
2022-12-08T20:47:37.645Z,27.90
2022-12-08T20:50:07.296Z,26.17
2022-12-08T20:52:35.430Z,20.43
2022-12-08T20:55:02.785Z,19.90
2022-12-08T20:57:31.530Z,20.67
2022-12-08T20:59:59.223Z,20.97
2022-12-08T21:02:28.524Z,20.23
2022-12-08T21:04:57.234Z,20.23
2022-12-08T21:07:24.998Z,19.20
2022-12-08T21:09:55.454Z,18.30
2022-12-08T21:12:23.413Z,19.37
2022-12-08T21:14:50.902Z,19.80
2022-12-08T21:17:19.528Z,18.30
2022-12-08T21:19:47.417Z,18.77
2022-12-08T21:22:17.518Z,18.53
2022-12-08T21:24:45.537Z,17.17
2022-12-08T21:27:14.396Z,17.77
2022-12-08T21:29:42.273Z,17.37
2022-12-08T21:32:10.313Z,16.97
2022-12-08T21:34:38.837Z,18.60
2022-12-08T21:37:06.206Z,17.63
2022-12-08T21:39:34.003Z,16.63
2022-12-08T21:42:22.739Z,16.63
2022-12-08T21:44:50.874Z,16.60
2022-12-08T21:47:18.668Z,16.63
2022-12-08T21:49:48.127Z,17.17
2022-12-08T21:52:16.973Z,17.57
2022-12-08T21:54:44.646Z,16.53
2022-12-08T21:57:13.849Z,15.83
2022-12-08T21:59:41.540Z,16.40
2022-12-08T22:02:16.654Z,16.13
2022-12-08T22:04:50.610Z,16.57
2022-12-08T22:07:19.280Z,16.53
2022-12-08T22:09:47.796Z,14.93
2022-12-08T22:12:17.881Z,16.07
2022-12-08T22:14:51.078Z,15.70
2022-12-08T22:17:18.892Z,16.60
2022-12-08T22:19:46.472Z,15.60
2022-12-08T22:22:14.052Z,15.70
2022-12-08T22:24:41.717Z,16.10
2022-12-08T22:27:09.285Z,15.87
2022-12-08T22:29:36.934Z,14.70
2022-12-08T22:32:04.849Z,16.47
2022-12-08T22:34:33.572Z,16.67
2022-12-08T22:37:01.104Z,15.67
2022-12-08T22:39:28.502Z,15.73
2022-12-08T22:41:57.147Z,16.17
2022-12-08T22:44:24.800Z,17.63
2022-12-08T22:46:52.543Z,15.20
2022-12-08T22:49:19.983Z,18.23
2022-12-08T22:51:48.036Z,18.90
2022-12-08T22:54:15.713Z,18.13
2022-12-08T22:56:43.122Z,17.70
2022-12-08T22:59:10.778Z,15.83
2022-12-08T23:01:38.740Z,17.27
2022-12-08T23:04:06.561Z,20.20
2022-12-08T23:06:35.072Z,19.23
2022-12-08T23:09:02.533Z,18.53
2022-12-08T23:11:31.456Z,16.73
2022-12-08T23:14:02.090Z,15.13
2022-12-08T23:16:30.765Z,14.20
2022-12-08T23:18:59.326Z,14.90
2022-12-08T23:21:28.017Z,14.17
2022-12-08T23:23:55.814Z,14.77
2022-12-08T23:26:27.051Z,14.53
2022-12-08T23:28:56.105Z,16.97
2022-12-08T23:31:24.851Z,16.87
2022-12-08T23:33:53.320Z,14.00
2022-12-08T23:36:27.648Z,13.57
2022-12-08T23:38:55.592Z,13.40
2022-12-08T23:41:24.053Z,13.43
2022-12-08T23:43:51.931Z,13.33
2022-12-08T23:46:22.486Z,14.23
2022-12-08T23:48:51.543Z,13.30
2022-12-08T23:51:20.074Z,13.57
2022-12-08T23:53:47.643Z,13.50
2022-12-08T23:56:17.522Z,13.83
2022-12-08T23:58:46.495Z,13.70
